Terminal Aerodrome Forecast
Issued by NWS

Home | Current Version | Previous Version | Text Only | Print | Product List | Glossary On
Versions: 1 2 3 4 5 6 7 8 9 10 11 12 13 14 15 16 17 18 19 20 21 22 23 24 25
000
FTUS42 KRAH 222335
TAFINT
TAF
KINT 222335Z 2300/2324 08010KT 2SM BR VCSH OVC002
      TEMPO 2303/2307 4SM SHRA OVC004
     FM230800 10010KT 2SM BR VCSH BKN005 BKN020
     FM231300 VRB05KT 4SM BR SCT005 BKN020
     FM231600 35005KT P6SM SCT020 BKN030=

USA.gov is the U.S. government's official web portal to all federal, state and local government web resources and services.